Green Bay, WI (54303)

6:05 PM CST on November 24, 2017 (GMT -0600)
Perkins Park | | Change Station

Elev 600 ft 44.54 °N, 88.05 °W | Updated 26 seconds ago

Overcast
Overcast
54.0 °F
Feels Like 54.0 °F
N
0.0
Wind Variable Wind from South

Today
High -- | Low -- °F
--% Chance of Precip.
Yesterday
High -- | Low -- °F
Precip. -- in
Pressure 29.36 in
Visibility 10.0 miles
Clouds Overcast 5500 ft
Dew Point 42 °F
Humidity 65%
Rainfall 0.00 in
Snow Depth Not available.
7:00 AM 4:17 PM
Waxing Crescent, 34% visible
METAR KGRB 242353Z 27007KT 10SM OVC055 13/06 A2935 RMK AO2 SLP941 T01280056 10167 20128 51021
Pressure 29.36 in
Visibility 10.0 miles
Clouds Overcast 5500 ft
Dew Point 42 °F
Humidity 65%
Rainfall 0.00 in
Snow Depth Not available.
7:00 AM 4:17 PM
Waxing Crescent, 34% visible
METAR KGRB 242353Z 27007KT 10SM OVC055 13/06 A2935 RMK AO2 SLP941 T01280056 10167 20128 51021

Get Severe Weather Alerts

Thanks for signing up!

Be on the lookout for a verification email in your inbox.

You'll start receiving the daily forecast at 6 AM.

×

10-Day Weather Forecast

Almanac

Astronomy

Nov. 24, 2017 Rise Set
Actual Time
Civil Twilight
Nautical Twilight
Astronomical Twilight
Moon
Length of Visible Light
Length of Day
Tomorrow will be .
, % of the Moon is Illuminated

Today's Extremes

State Highs State Lows

Community

WunderPhotos

Category 6

Welcome to Category 6. This is the collective home for Weather Underground's featured writeups by Dr. Jeff Masters (right), Bob Henson (left), Chris Burt, and other regular contributors.

Nearby

Air Quality

  Air Quality AQ Index Pollutant
Not available.

Snow Depth

Station Depth Elevation

Earthquake Activity

City Distance Mag. Time & Date
Minimum magnitude displayed is 2.5.

Coastal Water Temperatures

Place Temperature

Stations

Nearby Weather Stations

Station Location Temp. Windchill Dew Point Humidity Wind Precip. Elev Updated Type
                   

Watches & Warnings

There are currently no watches in effect.